sensor_id;sensor_type;location;lat;lon;timestamp;P1;P2;P0
29460;PMS7003;16428;47.836;35.106;2024-03-06T00:01:08;64.67;49.00;31.00
29460;PMS7003;16428;47.836;35.106;2024-03-06T00:03:34;73.00;55.33;35.00
29460;PMS7003;16428;47.836;35.106;2024-03-06T00:06:01;59.33;45.67;25.67
29460;PMS7003;16428;47.836;35.106;2024-03-06T00:08:29;80.33;59.67;42.67
29460;PMS7003;16428;47.836;35.106;2024-03-06T00:10:57;79.33;64.00;42.00
29460;PMS7003;16428;47.836;35.106;2024-03-06T00:13:24;78.33;64.33;45.67
29460;PMS7003;16428;47.836;35.106;2024-03-06T00:15:50;72.33;56.33;38.67
29460;PMS7003;16428;47.836;35.106;2024-03-06T00:18:17;75.67;58.00;39.33
29460;PMS7003;16428;47.836;35.106;2024-03-06T00:20:45;75.00;59.00;37.67
29460;PMS7003;16428;47.836;35.106;2024-03-06T00:23:11;73.00;57.00;37.67
29460;PMS7003;16428;47.836;35.106;2024-03-06T00:25:39;77.33;60.33;42.67
29460;PMS7003;16428;47.836;35.106;2024-03-06T00:28:06;70.67;54.67;36.67
29460;PMS7003;16428;47.836;35.106;2024-03-06T00:30:33;69.00;52.67;35.67
29460;PMS7003;16428;47.836;35.106;2024-03-06T00:33:00;70.33;56.00;36.67
29460;PMS7003;16428;47.836;35.106;2024-03-06T00:35:27;73.67;51.33;32.33
29460;PMS7003;16428;47.836;35.106;2024-03-06T00:37:55;66.33;49.67;33.67
29460;PMS7003;16428;47.836;35.106;2024-03-06T00:40:22;65.00;49.00;34.33
29460;PMS7003;16428;47.836;35.106;2024-03-06T00:42:50;68.33;51.33;34.00
29460;PMS7003;16428;47.836;35.106;2024-03-06T00:45:17;61.67;47.67;32.67
29460;PMS7003;16428;47.836;35.106;2024-03-06T00:47:44;66.33;50.67;33.33
29460;PMS7003;16428;47.836;35.106;2024-03-06T00:50:11;57.67;47.33;32.00
29460;PMS7003;16428;47.836;35.106;2024-03-06T00:52:38;60.33;45.33;32.00
29460;PMS7003;16428;47.836;35.106;2024-03-06T00:55:05;59.33;45.67;31.33
29460;PMS7003;16428;47.836;35.106;2024-03-06T00:57:32;62.33;46.33;32.00
29460;PMS7003;16428;47.836;35.106;2024-03-06T00:59:59;57.00;44.33;32.00
29460;PMS7003;16428;47.836;35.106;2024-03-06T01:02:26;52.67;43.00;31.67
29460;PMS7003;16428;47.836;35.106;2024-03-06T01:04:53;60.67;46.00;31.00
29460;PMS7003;16428;47.836;35.106;2024-03-06T01:07:20;54.67;45.33;30.67
29460;PMS7003;16428;47.836;35.106;2024-03-06T01:09:48;61.67;48.67;33.67
29460;PMS7003;16428;47.836;35.106;2024-03-06T01:12:15;52.33;36.67;27.00
29460;PMS7003;16428;47.836;35.106;2024-03-06T01:14:42;54.67;45.00;29.67
29460;PMS7003;16428;47.836;35.106;2024-03-06T01:17:09;56.33;44.33;32.00
29460;PMS7003;16428;47.836;35.106;2024-03-06T01:19:36;60.67;46.00;32.00
29460;PMS7003;16428;47.836;35.106;2024-03-06T01:22:03;56.67;46.00;33.00
29460;PMS7003;16428;47.836;35.106;2024-03-06T01:24:30;62.00;49.33;34.67
29460;PMS7003;16428;47.836;35.106;2024-03-06T01:26:57;63.67;50.00;31.67
29460;PMS7003;16428;47.836;35.106;2024-03-06T01:29:24;59.33;48.00;33.33
29460;PMS7003;16428;47.836;35.106;2024-03-06T01:31:51;65.00;50.00;33.00
29460;PMS7003;16428;47.836;35.106;2024-03-06T01:34:18;66.33;49.33;34.00
29460;PMS7003;16428;47.836;35.106;2024-03-06T01:36:45;63.33;50.00;34.00
29460;PMS7003;16428;47.836;35.106;2024-03-06T01:39:12;66.33;51.33;35.67
29460;PMS7003;16428;47.836;35.106;2024-03-06T01:41:49;64.67;49.67;34.00
29460;PMS7003;16428;47.836;35.106;2024-03-06T01:44:17;65.00;50.00;35.00
29460;PMS7003;16428;47.836;35.106;2024-03-06T01:46:45;70.00;54.00;37.33
29460;PMS7003;16428;47.836;35.106;2024-03-06T01:49:14;65.67;55.00;37.00
29460;PMS7003;16428;47.836;35.106;2024-03-06T01:51:55;70.67;55.67;36.33
29460;PMS7003;16428;47.836;35.106;2024-03-06T01:54:23;57.33;48.00;32.67
29460;PMS7003;16428;47.836;35.106;2024-03-06T01:56:51;69.00;52.00;37.00
29460;PMS7003;16428;47.836;35.106;2024-03-06T01:59:22;72.33;57.33;36.67
29460;PMS7003;16428;47.836;35.106;2024-03-06T02:02:02;77.67;61.00;42.00
29460;PMS7003;16428;47.836;35.106;2024-03-06T02:04:31;69.33;53.33;37.33
29460;PMS7003;16428;47.836;35.106;2024-03-06T02:06:58;68.33;54.33;38.00
29460;PMS7003;16428;47.836;35.106;2024-03-06T02:09:25;66.67;50.67;33.67
29460;PMS7003;16428;47.836;35.106;2024-03-06T02:11:53;68.67;50.67;36.00
29460;PMS7003;16428;47.836;35.106;2024-03-06T02:14:20;69.33;53.33;35.67
29460;PMS7003;16428;47.836;35.106;2024-03-06T02:16:47;68.33;54.33;36.67
29460;PMS7003;16428;47.836;35.106;2024-03-06T02:19:14;43.00;28.00;21.67
29460;PMS7003;16428;47.836;35.106;2024-03-06T02:21:42;66.67;52.00;37.67
29460;PMS7003;16428;47.836;35.106;2024-03-06T02:24:09;73.00;55.33;36.33
29460;PMS7003;16428;47.836;35.106;2024-03-06T02:26:38;64.00;50.67;34.00
29460;PMS7003;16428;47.836;35.106;2024-03-06T02:29:05;77.67;63.67;44.00
29460;PMS7003;16428;47.836;35.106;2024-03-06T02:31:33;67.00;51.33;33.33
29460;PMS7003;16428;47.836;35.106;2024-03-06T02:34:01;72.33;55.33;34.67
29460;PMS7003;16428;47.836;35.106;2024-03-06T02:36:33;74.67;58.33;36.33
29460;PMS7003;16428;47.836;35.106;2024-03-06T02:39:00;73.67;56.67;38.00
29460;PMS7003;16428;47.836;35.106;2024-03-06T02:41:28;72.33;55.67;36.67
29460;PMS7003;16428;47.836;35.106;2024-03-06T02:43:56;68.67;52.00;34.00
29460;PMS7003;16428;47.836;35.106;2024-03-06T02:46:23;70.67;53.33;36.00
29460;PMS7003;16428;47.836;35.106;2024-03-06T02:48:50;71.33;56.00;37.67
29460;PMS7003;16428;47.836;35.106;2024-03-06T02:51:18;71.33;57.00;38.33
29460;PMS7003;16428;47.836;35.106;2024-03-06T02:53:46;68.67;53.67;37.33
29460;PMS7003;16428;47.836;35.106;2024-03-06T02:56:16;70.33;54.67;39.00
29460;PMS7003;16428;47.836;35.106;2024-03-06T02:58:44;70.67;57.00;38.67
29460;PMS7003;16428;47.836;35.106;2024-03-06T03:01:11;75.00;57.67;36.33
29460;PMS7003;16428;47.836;35.106;2024-03-06T03:03:42;72.00;55.67;37.67
29460;PMS7003;16428;47.836;35.106;2024-03-06T03:06:10;76.00;56.33;37.00
29460;PMS7003;16428;47.836;35.106;2024-03-06T03:08:38;68.33;53.33;35.33
29460;PMS7003;16428;47.836;35.106;2024-03-06T03:11:05;67.00;52.67;36.00
29460;PMS7003;16428;47.836;35.106;2024-03-06T03:13:32;65.67;52.67;35.67
29460;PMS7003;16428;47.836;35.106;2024-03-06T03:15:59;68.67;54.00;36.67
29460;PMS7003;16428;47.836;35.106;2024-03-06T03:18:26;67.33;55.67;37.33
29460;PMS7003;16428;47.836;35.106;2024-03-06T03:20:53;70.67;55.67;36.00
29460;PMS7003;16428;47.836;35.106;2024-03-06T03:23:20;71.00;53.67;35.33
29460;PMS7003;16428;47.836;35.106;2024-03-06T03:25:49;64.67;54.00;35.33
29460;PMS7003;16428;47.836;35.106;2024-03-06T03:28:16;70.67;52.33;35.67
29460;PMS7003;16428;47.836;35.106;2024-03-06T03:30:43;69.67;53.00;36.00
29460;PMS7003;16428;47.836;35.106;2024-03-06T03:33:11;56.67;46.33;31.67
29460;PMS7003;16428;47.836;35.106;2024-03-06T03:35:38;66.33;51.33;35.00
29460;PMS7003;16428;47.836;35.106;2024-03-06T03:38:05;58.67;45.67;32.67
29460;PMS7003;16428;47.836;35.106;2024-03-06T03:40:32;60.67;50.67;33.33
29460;PMS7003;16428;47.836;35.106;2024-03-06T03:43:00;58.33;47.67;33.00
29460;PMS7003;16428;47.836;35.106;2024-03-06T03:45:32;62.00;50.00;32.67
29460;PMS7003;16428;47.836;35.106;2024-03-06T03:48:03;60.67;47.67;33.00
29460;PMS7003;16428;47.836;35.106;2024-03-06T03:50:30;65.67;50.00;33.00
29460;PMS7003;16428;47.836;35.106;2024-03-06T03:52:58;65.00;51.33;35.67
29460;PMS7003;16428;47.836;35.106;2024-03-06T03:55:29;75.33;62.67;42.33
29460;PMS7003;16428;47.836;35.106;2024-03-06T03:57:56;72.33;54.67;36.67
29460;PMS7003;16428;47.836;35.106;2024-03-06T04:00:23;61.33;51.33;35.33
29460;PMS7003;16428;47.836;35.106;2024-03-06T04:02:50;62.33;48.33;33.00
29460;PMS7003;16428;47.836;35.106;2024-03-06T04:05:17;60.67;47.67;32.67
29460;PMS7003;16428;47.836;35.106;2024-03-06T04:07:45;69.67;52.33;34.67
29460;PMS7003;16428;47.836;35.106;2024-03-06T04:10:12;63.00;49.00;32.00
29460;PMS7003;16428;47.836;35.106;2024-03-06T04:12:39;53.00;41.33;27.67
29460;PMS7003;16428;47.836;35.106;2024-03-06T04:15:16;65.00;47.00;32.00
29460;PMS7003;16428;47.836;35.106;2024-03-06T04:17:44;65.67;47.67;32.00
29460;PMS7003;16428;47.836;35.106;2024-03-06T04:20:11;58.67;46.67;28.00
29460;PMS7003;16428;47.836;35.106;2024-03-06T04:22:42;66.00;51.00;32.67
29460;PMS7003;16428;47.836;35.106;2024-03-06T04:25:09;59.67;46.33;29.33
29460;PMS7003;16428;47.836;35.106;2024-03-06T04:27:36;60.33;48.67;32.00
29460;PMS7003;16428;47.836;35.106;2024-03-06T04:30:04;65.00;49.00;33.67
29460;PMS7003;16428;47.836;35.106;2024-03-06T04:32:31;58.00;44.67;30.33
29460;PMS7003;16428;47.836;35.106;2024-03-06T04:34:59;60.67;45.00;31.33
29460;PMS7003;16428;47.836;35.106;2024-03-06T04:37:26;67.33;53.00;35.00
29460;PMS7003;16428;47.836;35.106;2024-03-06T04:39:53;55.33;45.00;29.33
29460;PMS7003;16428;47.836;35.106;2024-03-06T04:42:20;52.33;40.67;29.67
29460;PMS7003;16428;47.836;35.106;2024-03-06T04:44:48;63.00;50.67;34.00
29460;PMS7003;16428;47.836;35.106;2024-03-06T04:47:15;64.67;47.67;32.00
29460;PMS7003;16428;47.836;35.106;2024-03-06T04:49:42;57.00;45.00;31.67
29460;PMS7003;16428;47.836;35.106;2024-03-06T04:52:09;61.67;48.67;34.00
29460;PMS7003;16428;47.836;35.106;2024-03-06T04:54:36;62.67;51.00;34.67
29460;PMS7003;16428;47.836;35.106;2024-03-06T04:57:03;60.33;47.33;30.33
29460;PMS7003;16428;47.836;35.106;2024-03-06T04:59:30;62.67;48.67;33.00
29460;PMS7003;16428;47.836;35.106;2024-03-06T05:01:57;65.67;52.67;36.33
29460;PMS7003;16428;47.836;35.106;2024-03-06T05:04:25;67.67;51.00;33.33
29460;PMS7003;16428;47.836;35.106;2024-03-06T05:07:09;69.00;50.67;34.00
29460;PMS7003;16428;47.836;35.106;2024-03-06T05:09:55;57.33;47.00;32.67
29460;PMS7003;16428;47.836;35.106;2024-03-06T05:12:41;63.67;50.33;34.33
29460;PMS7003;16428;47.836;35.106;2024-03-06T05:15:26;64.00;49.67;33.33
29460;PMS7003;16428;47.836;35.106;2024-03-06T05:18:11;68.00;51.67;34.00
29460;PMS7003;16428;47.836;35.106;2024-03-06T05:20:55;58.33;46.33;31.00
29460;PMS7003;16428;47.836;35.106;2024-03-06T05:23:39;68.67;54.33;34.67
29460;PMS7003;16428;47.836;35.106;2024-03-06T05:26:24;61.67;51.67;34.67
29460;PMS7003;16428;47.836;35.106;2024-03-06T05:29:09;61.67;50.33;33.67
29460;PMS7003;16428;47.836;35.106;2024-03-06T05:31:54;65.33;51.00;34.00
29460;PMS7003;16428;47.836;35.106;2024-03-06T05:34:40;76.00;59.00;39.67
29460;PMS7003;16428;47.836;35.106;2024-03-06T05:37:24;76.00;60.00;39.00
29460;PMS7003;16428;47.836;35.106;2024-03-06T05:40:09;80.25;66.00;44.00
29460;PMS7003;16428;47.836;35.106;2024-03-06T05:42:54;68.67;52.00;36.33
29460;PMS7003;16428;47.836;35.106;2024-03-06T05:45:38;64.33;53.00;35.33
29460;PMS7003;16428;47.836;35.106;2024-03-06T05:48:23;60.67;50.67;35.33
29460;PMS7003;16428;47.836;35.106;2024-03-06T05:51:08;65.00;50.67;33.33
29460;PMS7003;16428;47.836;35.106;2024-03-06T05:53:53;70.67;54.33;36.33
29460;PMS7003;16428;47.836;35.106;2024-03-06T05:56:37;74.33;55.00;37.00
29460;PMS7003;16428;47.836;35.106;2024-03-06T05:59:23;67.00;54.67;36.33
29460;PMS7003;16428;47.836;35.106;2024-03-06T06:01:50;72.33;55.00;35.00
29460;PMS7003;16428;47.836;35.106;2024-03-06T06:04:18;76.67;60.00;39.33
29460;PMS7003;16428;47.836;35.106;2024-03-06T06:06:45;72.00;57.67;39.00
29460;PMS7003;16428;47.836;35.106;2024-03-06T06:09:12;74.00;52.33;37.00
29460;PMS7003;16428;47.836;35.106;2024-03-06T06:11:43;48.00;41.00;29.00
29460;PMS7003;16428;47.836;35.106;2024-03-06T06:14:12;67.33;51.33;34.33
29460;PMS7003;16428;47.836;35.106;2024-03-06T06:16:40;68.33;52.67;35.00
29460;PMS7003;16428;47.836;35.106;2024-03-06T06:19:09;67.00;49.00;33.00
29460;PMS7003;16428;47.836;35.106;2024-03-06T06:21:36;60.33;47.33;32.00
29460;PMS7003;16428;47.836;35.106;2024-03-06T06:24:04;56.67;46.33;32.33
29460;PMS7003;16428;47.836;35.106;2024-03-06T06:26:31;63.33;47.00;32.00
29460;PMS7003;16428;47.836;35.106;2024-03-06T06:28:59;58.67;45.33;32.00
29460;PMS7003;16428;47.836;35.106;2024-03-06T06:31:27;55.67;44.67;32.00
29460;PMS7003;16428;47.836;35.106;2024-03-06T06:33:54;55.67;47.33;32.67
29460;PMS7003;16428;47.836;35.106;2024-03-06T06:36:21;57.00;46.67;32.00
29460;PMS7003;16428;47.836;35.106;2024-03-06T06:38:49;55.67;45.33;30.33
29460;PMS7003;16428;47.836;35.106;2024-03-06T06:41:17;57.33;44.33;29.00
29460;PMS7003;16428;47.836;35.106;2024-03-06T06:43:44;52.00;42.00;29.00
29460;PMS7003;16428;47.836;35.106;2024-03-06T06:46:11;52.00;38.33;24.67
29460;PMS7003;16428;47.836;35.106;2024-03-06T06:48:39;65.00;50.33;33.33
29460;PMS7003;16428;47.836;35.106;2024-03-06T06:51:06;52.00;41.67;28.67
29460;PMS7003;16428;47.836;35.106;2024-03-06T06:53:34;59.00;46.33;32.67
29460;PMS7003;16428;47.836;35.106;2024-03-06T06:56:01;55.00;42.00;31.00
29460;PMS7003;16428;47.836;35.106;2024-03-06T06:58:29;51.00;40.67;27.67
29460;PMS7003;16428;47.836;35.106;2024-03-06T07:00:56;54.75;43.00;29.00
29460;PMS7003;16428;47.836;35.106;2024-03-06T07:03:23;54.67;45.00;26.00
29460;PMS7003;16428;47.836;35.106;2024-03-06T07:05:56;55.75;46.50;30.75
29460;PMS7003;16428;47.836;35.106;2024-03-06T07:08:24;55.25;40.50;27.25
29460;PMS7003;16428;47.836;35.106;2024-03-06T07:10:51;54.75;45.25;30.25
29460;PMS7003;16428;47.836;35.106;2024-03-06T07:13:21;49.00;38.75;29.50
29460;PMS7003;16428;47.836;35.106;2024-03-06T07:15:48;52.00;42.25;30.25
29460;PMS7003;16428;47.836;35.106;2024-03-06T07:18:16;33.25;28.25;23.00
29460;PMS7003;16428;47.836;35.106;2024-03-06T07:20:43;50.75;41.00;28.00
29460;PMS7003;16428;47.836;35.106;2024-03-06T07:23:10;49.75;37.25;23.50
29460;PMS7003;16428;47.836;35.106;2024-03-06T07:25:37;55.50;45.75;31.50
29460;PMS7003;16428;47.836;35.106;2024-03-06T07:28:04;47.50;41.25;28.50
29460;PMS7003;16428;47.836;35.106;2024-03-06T07:30:31;51.25;41.00;28.75
29460;PMS7003;16428;47.836;35.106;2024-03-06T07:32:58;49.50;41.75;29.75
29460;PMS7003;16428;47.836;35.106;2024-03-06T07:35:25;43.50;38.25;27.25
29460;PMS7003;16428;47.836;35.106;2024-03-06T07:37:53;53.00;38.50;29.25
29460;PMS7003;16428;47.836;35.106;2024-03-06T07:40:20;43.00;38.25;28.25
29460;PMS7003;16428;47.836;35.106;2024-03-06T07:42:47;48.75;41.75;27.75
29460;PMS7003;16428;47.836;35.106;2024-03-06T07:45:15;44.25;38.25;27.25
29460;PMS7003;16428;47.836;35.106;2024-03-06T07:47:42;51.75;40.75;27.50
29460;PMS7003;16428;47.836;35.106;2024-03-06T07:50:09;42.00;36.75;26.00
29460;PMS7003;16428;47.836;35.106;2024-03-06T07:52:38;46.75;41.00;29.00
29460;PMS7003;16428;47.836;35.106;2024-03-06T07:55:06;44.50;33.50;25.50
29460;PMS7003;16428;47.836;35.106;2024-03-06T07:57:34;48.50;39.75;27.00
29460;PMS7003;16428;47.836;35.106;2024-03-06T08:00:02;39.50;37.00;25.00
29460;PMS7003;16428;47.836;35.106;2024-03-06T08:02:41;49.50;36.50;26.25
29460;PMS7003;16428;47.836;35.106;2024-03-06T08:05:13;41.00;35.75;25.75
29460;PMS7003;16428;47.836;35.106;2024-03-06T08:07:41;31.00;27.00;16.25
29460;PMS7003;16428;47.836;35.106;2024-03-06T08:10:09;45.50;33.50;24.00
29460;PMS7003;16428;47.836;35.106;2024-03-06T08:12:40;49.25;38.75;26.25
29460;PMS7003;16428;47.836;35.106;2024-03-06T08:15:12;53.75;39.75;29.00
29460;PMS7003;16428;47.836;35.106;2024-03-06T08:17:41;36.00;33.50;23.50
29460;PMS7003;16428;47.836;35.106;2024-03-06T08:20:10;42.75;34.50;24.50
29460;PMS7003;16428;47.836;35.106;2024-03-06T08:22:39;40.50;34.00;24.25
29460;PMS7003;16428;47.836;35.106;2024-03-06T08:25:09;40.50;35.50;24.75
29460;PMS7003;16428;47.836;35.106;2024-03-06T08:27:40;35.00;31.50;23.00
29460;PMS7003;16428;47.836;35.106;2024-03-06T08:30:09;39.75;33.50;23.00
29460;PMS7003;16428;47.836;35.106;2024-03-06T08:32:37;40.25;36.00;25.00
29460;PMS7003;16428;47.836;35.106;2024-03-06T08:35:05;41.25;32.25;22.50
29460;PMS7003;16428;47.836;35.106;2024-03-06T08:37:38;36.00;33.25;23.00
29460;PMS7003;16428;47.836;35.106;2024-03-06T08:40:06;32.00;30.00;17.25
29460;PMS7003;16428;47.836;35.106;2024-03-06T08:42:37;43.25;35.50;25.00
29460;PMS7003;16428;47.836;35.106;2024-03-06T08:45:04;43.25;36.00;24.00
29460;PMS7003;16428;47.836;35.106;2024-03-06T08:47:32;43.25;36.00;25.00
29460;PMS7003;16428;47.836;35.106;2024-03-06T08:50:00;36.50;33.50;24.75
29460;PMS7003;16428;47.836;35.106;2024-03-06T08:52:29;36.00;33.75;24.75
29460;PMS7003;16428;47.836;35.106;2024-03-06T08:55:03;40.50;36.25;25.00
29460;PMS7003;16428;47.836;35.106;2024-03-06T08:57:37;42.50;36.00;25.00
29460;PMS7003;16428;47.836;35.106;2024-03-06T09:00:05;37.25;33.25;24.25
29460;PMS7003;16428;47.836;35.106;2024-03-06T09:02:38;36.25;33.00;22.25
29460;PMS7003;16428;47.836;35.106;2024-03-06T09:05:08;36.25;32.75;20.00
29460;PMS7003;16428;47.836;35.106;2024-03-06T09:07:37;39.00;35.25;24.00
29460;PMS7003;16428;47.836;35.106;2024-03-06T09:10:08;32.25;29.00;22.00
29460;PMS7003;16428;47.836;35.106;2024-03-06T09:12:36;37.75;33.25;24.00
29460;PMS7003;16428;47.836;35.106;2024-03-06T09:15:04;34.25;29.25;21.75
29460;PMS7003;16428;47.836;35.106;2024-03-06T09:17:35;31.25;28.00;21.75
29460;PMS7003;16428;47.836;35.106;2024-03-06T09:20:04;32.25;29.75;22.00
29460;PMS7003;16428;47.836;35.106;2024-03-06T09:22:41;37.50;32.50;23.25
29460;PMS7003;16428;47.836;35.106;2024-03-06T09:25:09;33.00;29.75;20.50
29460;PMS7003;16428;47.836;35.106;2024-03-06T09:27:39;36.75;30.75;22.00
29460;PMS7003;16428;47.836;35.106;2024-03-06T09:30:06;44.50;31.25;22.00
29460;PMS7003;16428;47.836;35.106;2024-03-06T09:32:37;38.50;33.00;22.75
29460;PMS7003;16428;47.836;35.106;2024-03-06T09:35:06;42.75;35.00;23.25
29460;PMS7003;16428;47.836;35.106;2024-03-06T09:37:33;39.75;33.00;22.25
29460;PMS7003;16428;47.836;35.106;2024-03-06T09:40:01;28.00;27.00;17.00
29460;PMS7003;16428;47.836;35.106;2024-03-06T09:42:30;35.50;30.75;21.25
29460;PMS7003;16428;47.836;35.106;2024-03-06T09:44:58;32.00;31.00;22.00
29460;PMS7003;16428;47.836;35.106;2024-03-06T09:47:25;43.50;36.25;24.50
29460;PMS7003;16428;47.836;35.106;2024-03-06T09:49:59;41.00;31.50;20.25
29460;PMS7003;16428;47.836;35.106;2024-03-06T09:52:30;33.00;26.50;19.50
29460;PMS7003;16428;47.836;35.106;2024-03-06T09:54:57;31.50;31.00;23.00
29460;PMS7003;16428;47.836;35.106;2024-03-06T09:57:26;30.50;29.75;22.75
29460;PMS7003;16428;47.836;35.106;2024-03-06T09:59:53;29.75;24.50;16.25
29460;PMS7003;16428;47.836;35.106;2024-03-06T10:05:20;29.50;28.75;21.00
29460;PMS7003;16428;47.836;35.106;2024-03-06T10:07:52;35.75;32.25;22.75
29460;PMS7003;16428;47.836;35.106;2024-03-06T10:10:20;37.75;31.25;23.00
29460;PMS7003;16428;47.836;35.106;2024-03-06T10:12:49;30.50;29.00;20.75
29460;PMS7003;16428;47.836;35.106;2024-03-06T10:15:16;33.75;27.00;21.00
29460;PMS7003;16428;47.836;35.106;2024-03-06T10:17:44;32.25;27.75;19.00
29460;PMS7003;16428;47.836;35.106;2024-03-06T10:22:51;31.50;27.50;15.00
29460;PMS7003;16428;47.836;35.106;2024-03-06T10:25:25;34.75;27.50;20.00
29460;PMS7003;16428;47.836;35.106;2024-03-06T10:33:10;32.75;29.50;19.75
29460;PMS7003;16428;47.836;35.106;2024-03-06T10:35:39;41.00;31.50;22.75
29460;PMS7003;16428;47.836;35.106;2024-03-06T10:38:08;31.25;26.75;20.75
29460;PMS7003;16428;47.836;35.106;2024-03-06T10:40:38;26.50;26.00;18.00
29460;PMS7003;16428;47.836;35.106;2024-03-06T10:43:10;35.25;29.00;20.00
29460;PMS7003;16428;47.836;35.106;2024-03-06T10:48:14;31.75;29.50;20.50
29460;PMS7003;16428;47.836;35.106;2024-03-06T10:50:43;34.75;29.25;20.00
29460;PMS7003;16428;47.836;35.106;2024-03-06T10:53:12;41.00;26.50;16.75
29460;PMS7003;16428;47.836;35.106;2024-03-06T10:55:47;35.00;31.25;22.00
29460;PMS7003;16428;47.836;35.106;2024-03-06T10:58:17;31.50;28.75;21.75
29460;PMS7003;16428;47.836;35.106;2024-03-06T11:00:46;51.25;39.25;28.00
29460;PMS7003;16428;47.836;35.106;2024-03-06T11:03:14;43.25;36.25;24.25
29460;PMS7003;16428;47.836;35.106;2024-03-06T11:05:42;45.75;38.75;27.25
29460;PMS7003;16428;47.836;35.106;2024-03-06T11:08:14;39.25;35.25;23.25
29460;PMS7003;16428;47.836;35.106;2024-03-06T11:10:43;35.00;29.25;20.25
29460;PMS7003;16428;47.836;35.106;2024-03-06T11:15:47;43.75;36.75;24.00
29460;PMS7003;16428;47.836;35.106;2024-03-06T11:21:22;38.75;32.00;23.50
29460;PMS7003;16428;47.836;35.106;2024-03-06T11:24:31;51.25;39.25;25.75
29460;PMS7003;16428;47.836;35.106;2024-03-06T11:26:47;39.00;33.75;23.00
29460;PMS7003;16428;47.836;35.106;2024-03-06T11:29:18;49.25;38.25;27.00
29460;PMS7003;16428;47.836;35.106;2024-03-06T11:32:05;49.00;38.00;27.00
29460;PMS7003;16428;47.836;35.106;2024-03-06T11:34:37;27.25;26.25;20.00
29460;PMS7003;16428;47.836;35.106;2024-03-06T11:37:06;35.25;27.25;21.50
29460;PMS7003;16428;47.836;35.106;2024-03-06T11:39:37;36.75;31.50;22.00
29460;PMS7003;16428;47.836;35.106;2024-03-06T11:42:06;25.00;25.00;20.00
29460;PMS7003;16428;47.836;35.106;2024-03-06T11:44:36;30.25;24.75;17.00
29460;PMS7003;16428;47.836;35.106;2024-03-06T11:47:05;30.50;24.25;16.75
29460;PMS7003;16428;47.836;35.106;2024-03-06T11:49:36;31.00;27.00;17.00
29460;PMS7003;16428;47.836;35.106;2024-03-06T11:52:06;28.00;26.25;15.75
29460;PMS7003;16428;47.836;35.106;2024-03-06T11:54:35;19.75;19.00;16.75
29460;PMS7003;16428;47.836;35.106;2024-03-06T11:57:04;28.75;24.00;18.00
29460;PMS7003;16428;47.836;35.106;2024-03-06T11:59:33;34.75;30.75;21.75
29460;PMS7003;16428;47.836;35.106;2024-03-06T12:02:03;28.25;24.50;20.00
29460;PMS7003;16428;47.836;35.106;2024-03-06T12:04:33;28.25;26.25;19.75
29460;PMS7003;16428;47.836;35.106;2024-03-06T12:07:03;29.25;27.50;20.00
29460;PMS7003;16428;47.836;35.106;2024-03-06T12:09:38;31.25;30.25;22.25
29460;PMS7003;16428;47.836;35.106;2024-03-06T12:12:09;30.25;25.75;19.50
29460;PMS7003;16428;47.836;35.106;2024-03-06T12:14:38;28.00;27.50;20.50
29460;PMS7003;16428;47.836;35.106;2024-03-06T12:17:12;35.25;32.00;23.25
29460;PMS7003;16428;47.836;35.106;2024-03-06T12:19:44;33.50;31.00;21.75
29460;PMS7003;16428;47.836;35.106;2024-03-06T12:22:12;40.00;34.75;25.50
29460;PMS7003;16428;47.836;35.106;2024-03-06T12:24:39;42.50;33.50;24.25
29460;PMS7003;16428;47.836;35.106;2024-03-06T12:27:07;43.25;36.25;27.00
29460;PMS7003;16428;47.836;35.106;2024-03-06T12:29:35;44.50;35.75;25.00
29460;PMS7003;16428;47.836;35.106;2024-03-06T12:32:05;39.25;36.25;24.75
29460;PMS7003;16428;47.836;35.106;2024-03-06T12:34:44;41.50;33.00;23.00
29460;PMS7003;16428;47.836;35.106;2024-03-06T12:37:11;35.25;33.50;24.50
29460;PMS7003;16428;47.836;35.106;2024-03-06T12:39:38;44.00;37.25;25.75
29460;PMS7003;16428;47.836;35.106;2024-03-06T12:42:09;49.50;40.00;27.25
29460;PMS7003;16428;47.836;35.106;2024-03-06T12:44:39;37.75;35.00;24.50
29460;PMS7003;16428;47.836;35.106;2024-03-06T12:47:07;38.50;35.00;23.00
29460;PMS7003;16428;47.836;35.106;2024-03-06T12:49:34;32.50;29.50;21.25
29460;PMS7003;16428;47.836;35.106;2024-03-06T12:52:02;35.00;33.00;23.25
29460;PMS7003;16428;47.836;35.106;2024-03-06T12:54:32;43.50;32.75;21.75
29460;PMS7003;16428;47.836;35.106;2024-03-06T12:56:59;45.75;36.75;24.75
29460;PMS7003;16428;47.836;35.106;2024-03-06T12:59:26;37.00;27.75;21.00
29460;PMS7003;16428;47.836;35.106;2024-03-06T13:01:54;20.50;18.50;12.75
29460;PMS7003;16428;47.836;35.106;2024-03-06T13:04:21;32.75;31.25;22.25
29460;PMS7003;16428;47.836;35.106;2024-03-06T13:06:48;43.00;35.00;26.25
29460;PMS7003;16428;47.836;35.106;2024-03-06T13:09:15;33.25;31.00;20.00
29460;PMS7003;16428;47.836;35.106;2024-03-06T13:11:42;41.25;34.25;24.00
29460;PMS7003;16428;47.836;35.106;2024-03-06T13:14:10;43.00;35.75;24.00
29460;PMS7003;16428;47.836;35.106;2024-03-06T13:16:39;52.50;43.25;30.00
29460;PMS7003;16428;47.836;35.106;2024-03-06T13:19:06;46.25;39.00;27.00
29460;PMS7003;16428;47.836;35.106;2024-03-06T13:21:35;44.50;34.00;24.25
29460;PMS7003;16428;47.836;35.106;2024-03-06T13:24:02;34.75;32.00;23.00
29460;PMS7003;16428;47.836;35.106;2024-03-06T13:26:30;41.25;34.50;22.50
29460;PMS7003;16428;47.836;35.106;2024-03-06T13:28:57;42.75;35.25;24.00
29460;PMS7003;16428;47.836;35.106;2024-03-06T13:31:27;30.25;30.25;22.25
29460;PMS7003;16428;47.836;35.106;2024-03-06T13:33:54;32.75;30.50;21.50
29460;PMS7003;16428;47.836;35.106;2024-03-06T13:36:21;35.00;33.50;24.75
29460;PMS7003;16428;47.836;35.106;2024-03-06T13:38:49;51.00;40.25;28.25
29460;PMS7003;16428;47.836;35.106;2024-03-06T13:41:16;48.25;40.00;27.50
29460;PMS7003;16428;47.836;35.106;2024-03-06T13:43:44;33.25;32.00;22.25
29460;PMS7003;16428;47.836;35.106;2024-03-06T13:46:11;36.75;30.00;21.00
29460;PMS7003;16428;47.836;35.106;2024-03-06T13:48:38;32.50;27.00;21.00
29460;PMS7003;16428;47.836;35.106;2024-03-06T13:51:05;24.00;22.25;18.00
29460;PMS7003;16428;47.836;35.106;2024-03-06T13:53:32;47.75;39.25;24.00
29460;PMS7003;16428;47.836;35.106;2024-03-06T13:56:00;48.25;38.75;27.00
29460;PMS7003;16428;47.836;35.106;2024-03-06T13:58:27;54.00;41.75;28.50
29460;PMS7003;16428;47.836;35.106;2024-03-06T14:00:54;39.50;36.50;26.50
29460;PMS7003;16428;47.836;35.106;2024-03-06T14:03:21;41.25;35.00;24.25
29460;PMS7003;16428;47.836;35.106;2024-03-06T14:05:48;34.75;30.25;22.25